createdAt,value
2023-05-22T00:00:03.809Z,0.02
2023-05-22T00:01:03.180Z,0.03
2023-05-22T00:02:03.724Z,0.02
2023-05-22T00:03:03.407Z,0.02
2023-05-22T00:04:03.798Z,0.02
2023-05-22T00:05:02.329Z,0.01
2023-05-22T00:06:02.245Z,0.02
2023-05-22T00:07:01.840Z,0.02
2023-05-22T00:08:01.975Z,0.02
2023-05-22T00:09:02.144Z,0.02
2023-05-22T00:10:02.255Z,0.02
2023-05-22T00:11:02.546Z,0.01
2023-05-22T00:12:02.347Z,0.03
2023-05-22T00:13:02.266Z,0.02
2023-05-22T00:14:02.460Z,0.02
2023-05-22T00:15:02.857Z,0.02
2023-05-22T00:16:02.851Z,0.02
2023-05-22T00:17:03.125Z,0.02
2023-05-22T00:18:03.128Z,0.02
2023-05-22T00:19:02.724Z,0.02
2023-05-22T00:20:01.856Z,0.01
2023-05-22T00:21:02.100Z,0.02
2023-05-22T00:22:01.948Z,0.01
2023-05-22T00:23:01.915Z,0.02
2023-05-22T00:24:01.952Z,0.02
2023-05-22T00:25:02.019Z,0.03
2023-05-22T00:26:02.452Z,0.02
2023-05-22T00:27:01.911Z,0.02
2023-05-22T00:28:02.045Z,0.02
2023-05-22T00:29:02.160Z,0.02
2023-05-22T00:30:02.141Z,0.02
2023-05-22T00:31:01.985Z,0.02
2023-05-22T00:32:02.479Z,0.02
2023-05-22T00:33:02.697Z,0.02
2023-05-22T00:34:02.346Z,0.02
2023-05-22T00:35:02.891Z,0.02
2023-05-22T00:36:02.588Z,0.02
2023-05-22T00:37:02.679Z,0.02
2023-05-22T00:38:02.896Z,0.02
2023-05-22T00:39:02.507Z,0.01
2023-05-22T00:40:03.035Z,0.03
2023-05-22T00:41:02.865Z,0.02
2023-05-22T00:42:02.484Z,0.02
2023-05-22T00:43:02.629Z,0.02
2023-05-22T00:44:02.801Z,0.01
2023-05-22T00:45:02.229Z,0.02
2023-05-22T00:46:02.260Z,0.02
2023-05-22T00:47:02.113Z,0.01
2023-05-22T00:48:02.197Z,0.02
2023-05-22T00:49:02.445Z,0.01
2023-05-22T00:50:02.277Z,0.01
2023-05-22T00:51:02.411Z,0.02
2023-05-22T00:52:02.557Z,0.02
2023-05-22T00:53:02.230Z,0.01
2023-05-22T00:54:02.499Z,0.03
2023-05-22T00:55:02.602Z,0.02
2023-05-22T00:56:02.729Z,0.02
2023-05-22T00:57:02.987Z,0.02
2023-05-22T00:58:02.900Z,0.02
2023-05-22T00:59:02.906Z,0.02
2023-05-22T01:00:02.121Z,0.02
2023-05-22T01:01:02.387Z,0.01
2023-05-22T01:02:02.290Z,0.03
2023-05-22T01:03:02.383Z,0.02
2023-05-22T01:04:02.424Z,0.02
2023-05-22T01:05:02.342Z,0.02
2023-05-22T01:06:02.902Z,0.02
2023-05-22T01:07:02.724Z,0.02
2023-05-22T01:08:02.126Z,0.02
2023-05-22T01:09:02.249Z,0.02
2023-05-22T01:10:02.195Z,0.03
2023-05-22T01:11:02.678Z,0.02
2023-05-22T01:12:02.906Z,0.02
2023-05-22T01:13:02.759Z,0.02
2023-05-22T01:14:02.474Z,0.03
2023-05-22T01:15:02.592Z,0.01
2023-05-22T01:16:02.735Z,0.02
2023-05-22T01:17:02.350Z,0.02
2023-05-22T01:18:02.502Z,0.02
2023-05-22T01:19:02.435Z,0.02
2023-05-22T01:20:02.339Z,0.02
2023-05-22T01:21:02.109Z,0.02
2023-05-22T01:22:02.659Z,0.02
2023-05-22T01:23:02.515Z,0.02
2023-05-22T01:24:02.675Z,0.02
2023-05-22T01:25:02.416Z,0.02
2023-05-22T01:26:02.535Z,0.02
2023-05-22T01:27:02.571Z,0.02
2023-05-22T01:28:02.436Z,0.02
2023-05-22T01:29:02.636Z,0.02
2023-05-22T01:30:02.849Z,0.03
2023-05-22T01:31:02.978Z,0.02
2023-05-22T01:32:02.550Z,0.03
2023-05-22T01:33:02.810Z,0.02
2023-05-22T01:34:03.037Z,0.02
2023-05-22T01:35:03.180Z,0.02
2023-05-22T01:36:03.170Z,0.02
2023-05-22T01:37:03.058Z,0.02
2023-05-22T01:38:03.459Z,0.02
2023-05-22T01:39:03.313Z,0.02
2023-05-22T01:40:02.412Z,0.03
2023-05-22T01:41:03.060Z,0.03
2023-05-22T01:42:02.927Z,0.02
2023-05-22T01:43:02.993Z,0.02
2023-05-22T01:44:02.917Z,0.02
2023-05-22T01:45:03.308Z,0.02
2023-05-22T01:46:02.955Z,0.02
2023-05-22T01:47:02.819Z,0.02
2023-05-22T01:48:02.963Z,0.02
2023-05-22T01:49:02.982Z,0.01
2023-05-22T01:50:02.676Z,0.02
2023-05-22T01:51:02.459Z,0.02
2023-05-22T01:52:02.582Z,0.02
2023-05-22T01:53:02.917Z,0.02
2023-05-22T01:54:02.484Z,0.02
2023-05-22T01:55:03.315Z,0.02
2023-05-22T01:56:03.472Z,0.02
2023-05-22T01:57:03.047Z,0.02
2023-05-22T01:58:03.509Z,0.02
2023-05-22T01:59:03.326Z,0.02
2023-05-22T02:00:02.248Z,0.02
2023-05-22T02:01:02.147Z,0.02
2023-05-22T02:02:02.383Z,0.02
2023-05-22T02:03:02.784Z,0.02
2023-05-22T02:04:02.711Z,0.02
2023-05-22T02:05:02.806Z,0.02
2023-05-22T02:06:02.700Z,0.01
2023-05-22T02:07:02.608Z,0.02
2023-05-22T02:08:02.811Z,0.03
2023-05-22T02:09:02.629Z,0.02
2023-05-22T02:10:02.975Z,0.02
2023-05-22T02:11:02.858Z,0.02
2023-05-22T02:12:02.535Z,0.02
2023-05-22T02:13:02.898Z,0.02
2023-05-22T02:14:03.047Z,0.02
2023-05-22T02:15:02.849Z,0.02
2023-05-22T02:16:02.949Z,0.02
2023-05-22T02:17:02.674Z,0.02
2023-05-22T02:18:02.541Z,0.03
2023-05-22T02:19:02.681Z,0.02
2023-05-22T02:20:02.778Z,0.01
2023-05-22T02:21:02.732Z,0.02
2023-05-22T02:22:03.060Z,0.02
2023-05-22T02:23:03.144Z,0.02
2023-05-22T02:24:03.002Z,0.03
2023-05-22T02:25:02.848Z,0.02
2023-05-22T02:26:03.274Z,0.02
2023-05-22T02:27:03.267Z,0.01
2023-05-22T02:28:03.198Z,0.02
2023-05-22T02:29:03.040Z,0.02
2023-05-22T02:30:03.265Z,0.02
2023-05-22T02:31:03.362Z,0.02
2023-05-22T02:32:03.228Z,0.02
2023-05-22T02:33:03.143Z,0.02
2023-05-22T02:34:03.050Z,0.03
2023-05-22T02:35:03.217Z,0.03
2023-05-22T02:36:03.021Z,0.02
2023-05-22T02:37:03.276Z,0.02
2023-05-22T02:38:03.430Z,0.02
2023-05-22T02:39:03.395Z,0.02
2023-05-22T02:40:03.134Z,0.02
2023-05-22T02:41:03.229Z,0.02
2023-05-22T02:42:02.857Z,0.02
2023-05-22T02:43:03.270Z,0.02
2023-05-22T02:44:02.972Z,0.02
2023-05-22T02:45:02.608Z,0.02
2023-05-22T02:46:03.010Z,0.02
2023-05-22T02:47:03.013Z,0.02
2023-05-22T02:48:02.973Z,0.02
2023-05-22T02:49:02.931Z,0.02
2023-05-22T02:50:03.497Z,0.03
2023-05-22T02:51:03.349Z,0.02
2023-05-22T02:52:03.497Z,0.02
2023-05-22T02:53:03.640Z,0.02
2023-05-22T02:54:03.483Z,0.03
2023-05-22T02:55:02.641Z,0.02
2023-05-22T02:56:02.748Z,0.02
2023-05-22T02:57:02.389Z,0.01
2023-05-22T02:58:02.591Z,0.03
2023-05-22T02:59:02.739Z,0.02
2023-05-22T03:00:03.321Z,0.02
2023-05-22T03:01:03.289Z,0.02
2023-05-22T03:02:03.206Z,0.02
2023-05-22T03:03:02.911Z,0.02
2023-05-22T03:04:03.190Z,0.01
2023-05-22T03:05:02.850Z,0.02
2023-05-22T03:06:03.056Z,0.02
2023-05-22T03:07:03.255Z,0.02
2023-05-22T03:08:02.944Z,0.02
2023-05-22T03:09:03.105Z,0.03
2023-05-22T03:10:02.392Z,0.02
2023-05-22T03:11:02.412Z,0.02
2023-05-22T03:12:02.671Z,0.02
2023-05-22T03:13:02.677Z,0.02
2023-05-22T03:14:02.389Z,0.02
2023-05-22T03:15:03.276Z,0.02
2023-05-22T03:16:03.165Z,0.02
2023-05-22T03:17:03.142Z,0.02
2023-05-22T03:18:03.150Z,0.03
2023-05-22T03:19:03.518Z,0.02
2023-05-22T03:20:03.096Z,0.02
2023-05-22T03:21:03.273Z,0.03
2023-05-22T03:22:03.421Z,0.03
2023-05-22T03:23:03.632Z,0.03
2023-05-22T03:24:03.550Z,0.02
2023-05-22T03:25:03.708Z,0.03
2023-05-22T03:26:03.750Z,0.03
2023-05-22T03:27:03.563Z,0.03
2023-05-22T03:28:03.626Z,0.03
2023-05-22T03:29:03.147Z,0.03
2023-05-22T03:30:02.309Z,0.03
2023-05-22T03:31:02.483Z,0.03
2023-05-22T03:32:02.869Z,0.03
2023-05-22T03:33:02.346Z,0.03
2023-05-22T03:34:02.466Z,0.03
2023-05-22T03:35:02.666Z,0.03
2023-05-22T03:36:02.887Z,0.04
2023-05-22T03:37:03.114Z,0.03
2023-05-22T03:38:03.055Z,0.04
2023-05-22T03:39:03.078Z,0.03
2023-05-22T03:40:02.324Z,0.04
2023-05-22T03:41:02.484Z,0.04
2023-05-22T03:42:02.681Z,0.04
2023-05-22T03:43:02.366Z,0.04
2023-05-22T03:44:02.611Z,0.04
2023-05-22T03:45:02.831Z,0.05
2023-05-22T03:46:03.136Z,0.04
2023-05-22T03:47:02.745Z,0.05
2023-05-22T03:48:03.249Z,0.04
2023-05-22T03:49:02.995Z,0.05
2023-05-22T03:50:03.257Z,0.05
2023-05-22T03:51:03.580Z,0.05
2023-05-22T03:52:03.216Z,0.05
2023-05-22T03:53:03.326Z,0.06
2023-05-22T03:54:03.677Z,0.06
2023-05-22T03:55:03.307Z,0.06
2023-05-22T03:56:03.383Z,0.06
2023-05-22T03:57:02.873Z,0.06
2023-05-22T03:58:03.126Z,0.07
2023-05-22T03:59:03.347Z,0.08
2023-05-22T04:00:03.219Z,0.08
2023-05-22T04:01:03.659Z,0.08
2023-05-22T04:02:03.676Z,0.09
2023-05-22T04:03:03.765Z,0.09
2023-05-22T04:04:03.327Z,0.09
2023-05-22T04:05:03.076Z,0.09
2023-05-22T04:06:02.556Z,0.10
2023-05-22T04:07:03.078Z,0.10
2023-05-22T04:08:02.412Z,0.10
2023-05-22T04:09:02.653Z,0.10
2023-05-22T04:10:02.894Z,0.10
2023-05-22T04:11:02.726Z,0.11
2023-05-22T04:12:02.974Z,0.12
2023-05-22T04:13:02.891Z,0.11
2023-05-22T04:14:03.221Z,0.11
2023-05-22T04:15:02.531Z,0.12
2023-05-22T04:16:02.905Z,0.12
2023-05-22T04:17:02.559Z,0.12
2023-05-22T04:18:02.436Z,0.12
2023-05-22T04:19:02.817Z,0.13
2023-05-22T04:20:02.842Z,0.14
2023-05-22T04:21:03.096Z,0.13
2023-05-22T04:22:02.640Z,0.13
2023-05-22T04:23:03.114Z,0.15
2023-05-22T04:24:02.732Z,0.15
2023-05-22T04:25:03.174Z,0.15
2023-05-22T04:26:02.817Z,0.15
2023-05-22T04:27:03.093Z,0.15
2023-05-22T04:28:02.790Z,0.16
2023-05-22T04:29:03.143Z,0.16
2023-05-22T04:30:02.568Z,0.16
2023-05-22T04:31:02.547Z,0.16
2023-05-22T04:32:02.362Z,0.17
2023-05-22T04:33:02.586Z,0.17
2023-05-22T04:34:02.222Z,0.17
2023-05-22T04:35:02.548Z,0.18
2023-05-22T04:36:02.843Z,0.18
2023-05-22T04:37:02.555Z,0.17
2023-05-22T04:38:02.881Z,0.18
2023-05-22T04:39:02.883Z,0.18
2023-05-22T04:40:02.981Z,0.19
2023-05-22T04:41:02.883Z,0.19
2023-05-22T04:42:03.219Z,0.19
2023-05-22T04:43:03.151Z,0.20
2023-05-22T04:44:03.171Z,0.19
2023-05-22T04:45:03.177Z,0.21
2023-05-22T04:46:03.440Z,0.21
2023-05-22T04:47:04.332Z,0.20
2023-05-22T04:48:03.077Z,0.21
2023-05-22T04:49:03.288Z,0.21
2023-05-22T04:50:02.582Z,0.23
2023-05-22T04:51:02.510Z,0.23
2023-05-22T04:52:02.300Z,0.22
2023-05-22T04:53:02.335Z,0.23
2023-05-22T04:54:02.615Z,0.24
2023-05-22T04:55:04.590Z,0.23
2023-05-22T04:56:02.721Z,0.23
2023-05-22T04:57:02.888Z,0.24
2023-05-22T04:58:03.004Z,0.25
2023-05-22T04:59:02.693Z,0.25
2023-05-22T05:00:02.880Z,0.26
2023-05-22T05:01:03.026Z,0.25
2023-05-22T05:02:02.617Z,0.25
2023-05-22T05:03:03.296Z,0.26
2023-05-22T05:04:03.025Z,0.27
2023-05-22T05:05:03.340Z,0.27
2023-05-22T05:06:03.562Z,0.27
2023-05-22T05:07:03.368Z,0.28
2023-05-22T05:08:02.964Z,0.29
2023-05-22T05:09:03.594Z,0.28
2023-05-22T05:10:03.799Z,0.30
2023-05-22T05:11:03.418Z,0.30
2023-05-22T05:12:03.585Z,0.30
2023-05-22T05:13:03.492Z,0.29
2023-05-22T05:14:03.529Z,0.29
2023-05-22T05:15:03.269Z,0.28
2023-05-22T05:16:03.111Z,0.29
2023-05-22T05:17:03.476Z,0.28
2023-05-22T05:18:02.885Z,0.30
2023-05-22T05:19:02.947Z,0.30
2023-05-22T05:20:02.419Z,0.30
2023-05-22T05:21:02.596Z,0.30
2023-05-22T05:22:02.787Z,0.31
2023-05-22T05:23:02.901Z,0.32
2023-05-22T05:24:02.720Z,0.31
2023-05-22T05:25:03.324Z,0.30
2023-05-22T05:26:02.715Z,0.31
2023-05-22T05:27:03.104Z,0.32
2023-05-22T05:28:02.867Z,0.33
2023-05-22T05:29:03.197Z,0.34
2023-05-22T05:30:03.412Z,0.36
2023-05-22T05:31:03.108Z,0.35
2023-05-22T05:32:03.106Z,0.36
2023-05-22T05:33:03.588Z,0.38
2023-05-22T05:34:03.001Z,0.37
2023-05-22T05:35:03.089Z,0.38
2023-05-22T05:36:02.540Z,0.39
2023-05-22T05:37:02.590Z,0.40
2023-05-22T05:38:02.629Z,0.41
2023-05-22T05:39:02.920Z,0.42
2023-05-22T05:40:03.189Z,0.44
2023-05-22T05:41:02.910Z,0.46
2023-05-22T05:42:02.845Z,0.49
2023-05-22T05:43:03.024Z,0.50
2023-05-22T05:44:02.939Z,0.53
2023-05-22T05:45:03.032Z,0.54
2023-05-22T05:46:03.384Z,0.56
2023-05-22T05:47:02.845Z,0.58
2023-05-22T05:48:03.545Z,0.58
2023-05-22T05:49:03.093Z,0.58
2023-05-22T05:50:03.820Z,0.58
2023-05-22T05:51:03.840Z,0.58
2023-05-22T05:52:03.446Z,0.58
2023-05-22T05:53:03.540Z,0.58
2023-05-22T05:54:03.359Z,0.56
2023-05-22T05:55:03.101Z,0.55
2023-05-22T05:56:03.602Z,0.57
2023-05-22T05:57:03.048Z,0.61
2023-05-22T05:58:03.493Z,0.62
2023-05-22T05:59:02.879Z,0.59
2023-05-22T06:00:03.681Z,0.60
2023-05-22T06:01:03.780Z,0.63
2023-05-22T06:02:03.733Z,0.66
2023-05-22T06:03:03.759Z,0.70
2023-05-22T06:04:03.351Z,0.71
2023-05-22T06:05:02.976Z,0.70
2023-05-22T06:06:02.384Z,0.70
2023-05-22T06:07:02.893Z,0.70
2023-05-22T06:08:02.823Z,0.71
2023-05-22T06:09:02.362Z,0.71
2023-05-22T06:10:02.458Z,0.70
2023-05-22T06:11:01.757Z,0.71
2023-05-22T06:12:01.864Z,0.73
2023-05-22T06:13:01.730Z,0.75
2023-05-22T06:14:02.128Z,0.77
2023-05-22T06:15:02.382Z,0.81
2023-05-22T06:16:05.677Z,0.80
2023-05-22T06:17:02.778Z,0.76
2023-05-22T06:18:02.785Z,0.75
2023-05-22T06:19:02.777Z,0.76
2023-05-22T06:20:02.438Z,0.76
2023-05-22T06:21:02.510Z,0.77
2023-05-22T06:22:02.587Z,0.77
2023-05-22T06:23:02.597Z,0.75
2023-05-22T06:24:03.047Z,0.76
2023-05-22T06:25:02.407Z,0.76
2023-05-22T06:26:02.068Z,0.78
2023-05-22T06:27:02.410Z,0.77
2023-05-22T06:28:02.089Z,0.75
2023-05-22T06:29:02.414Z,0.75
2023-05-22T06:30:04.622Z,0.76
2023-05-22T06:31:02.910Z,0.80
2023-05-22T06:32:02.728Z,0.80
2023-05-22T06:33:02.862Z,0.81
2023-05-22T06:34:02.656Z,0.81
2023-05-22T06:35:02.106Z,0.80
2023-05-22T06:36:02.161Z,0.80
2023-05-22T06:37:02.108Z,0.82
2023-05-22T06:38:02.116Z,0.85
2023-05-22T06:39:01.909Z,0.86
2023-05-22T06:40:02.006Z,0.84
2023-05-22T06:41:02.131Z,0.85
2023-05-22T06:42:02.074Z,0.81
2023-05-22T06:43:02.401Z,0.80
2023-05-22T06:44:02.070Z,0.82
2023-05-22T06:45:02.459Z,0.83
2023-05-22T06:46:03.042Z,0.77
2023-05-22T06:47:02.323Z,0.72
2023-05-22T06:48:02.964Z,0.70
2023-05-22T06:49:02.361Z,0.66
2023-05-22T06:50:01.696Z,0.64
2023-05-22T06:51:01.788Z,0.65
2023-05-22T06:52:04.497Z,0.63
2023-05-22T06:53:01.866Z,0.61
2023-05-22T06:54:02.290Z,0.61
2023-05-22T06:55:01.996Z,0.65
2023-05-22T06:56:02.228Z,0.67
2023-05-22T06:57:01.974Z,0.65
2023-05-22T06:58:02.515Z,0.63
2023-05-22T06:59:02.036Z,0.58
2023-05-22T07:00:02.029Z,0.60
2023-05-22T07:01:02.306Z,0.60
2023-05-22T07:02:02.128Z,0.60
2023-05-22T07:03:02.462Z,0.60
2023-05-22T07:04:02.622Z,0.58
2023-05-22T07:05:03.203Z,0.56
2023-05-22T07:06:02.669Z,0.57
2023-05-22T07:07:02.719Z,0.58
2023-05-22T07:08:02.887Z,0.60
2023-05-22T07:09:02.781Z,0.61
2023-05-22T07:10:02.471Z,0.62
2023-05-22T07:11:02.930Z,0.64
2023-05-22T07:12:02.392Z,0.64
2023-05-22T07:13:02.640Z,0.64
2023-05-22T07:14:02.796Z,0.67
2023-05-22T07:15:02.221Z,0.72
2023-05-22T07:16:02.161Z,0.70
2023-05-22T07:17:02.255Z,0.64
2023-05-22T07:18:02.281Z,0.57
2023-05-22T07:19:02.275Z,0.57
2023-05-22T07:20:02.499Z,0.58
2023-05-22T07:21:03.003Z,0.61
2023-05-22T07:22:02.794Z,0.63
2023-05-22T07:23:02.667Z,0.63
2023-05-22T07:24:02.584Z,0.66
2023-05-22T07:25:03.121Z,0.68
2023-05-22T07:26:03.151Z,0.66
2023-05-22T07:27:03.300Z,0.64
2023-05-22T07:28:02.974Z,0.61
2023-05-22T07:29:03.325Z,0.61
2023-05-22T07:30:03.003Z,0.61
2023-05-22T07:31:02.650Z,0.60
2023-05-22T07:32:02.923Z,0.60
2023-05-22T07:33:02.638Z,0.61
2023-05-22T07:34:02.702Z,0.62
2023-05-22T07:35:02.481Z,0.63
2023-05-22T07:36:02.420Z,0.62
2023-05-22T07:37:02.725Z,0.61
2023-05-22T07:38:02.328Z,0.62
2023-05-22T07:39:02.223Z,0.61
2023-05-22T07:40:02.673Z,0.63
2023-05-22T07:41:02.703Z,0.65
2023-05-22T07:42:02.407Z,0.65
2023-05-22T07:43:02.324Z,0.64
2023-05-22T07:44:02.620Z,0.64
2023-05-22T07:45:02.922Z,0.64
2023-05-22T07:46:03.111Z,0.65
2023-05-22T07:47:02.909Z,0.64
2023-05-22T07:48:02.849Z,0.64
2023-05-22T07:49:03.356Z,0.67
2023-05-22T07:50:02.785Z,0.68
2023-05-22T07:51:02.511Z,0.68
2023-05-22T07:52:02.291Z,0.69
2023-05-22T07:53:02.338Z,0.70
2023-05-22T07:54:02.856Z,0.70
2023-05-22T07:55:02.870Z,0.70
2023-05-22T07:56:02.934Z,0.70
2023-05-22T07:57:02.976Z,0.71
2023-05-22T07:58:03.213Z,0.70
2023-05-22T07:59:02.900Z,0.71
2023-05-22T08:00:02.739Z,0.72
2023-05-22T08:01:02.369Z,0.74
2023-05-22T08:02:02.899Z,0.76
2023-05-22T08:03:02.888Z,0.77
2023-05-22T08:04:03.066Z,0.79
2023-05-22T08:05:02.146Z,0.79
2023-05-22T08:06:02.336Z,0.79
2023-05-22T08:07:01.648Z,0.81
2023-05-22T08:08:02.155Z,0.86
2023-05-22T08:09:01.588Z,0.88
2023-05-22T08:10:02.605Z,0.91
2023-05-22T08:11:04.038Z,0.95
2023-05-22T08:12:02.311Z,0.98
2023-05-22T08:13:02.443Z,1.01
2023-05-22T08:14:02.587Z,1.06
2023-05-22T08:15:02.949Z,1.07
2023-05-22T08:16:02.753Z,1.06
2023-05-22T08:17:02.431Z,1.07
2023-05-22T08:18:02.924Z,1.09
2023-05-22T08:19:02.880Z,1.10
2023-05-22T08:20:03.199Z,1.15
2023-05-22T08:21:02.553Z,1.17
2023-05-22T08:22:02.817Z,1.21
2023-05-22T08:23:02.449Z,1.28
2023-05-22T08:24:03.028Z,1.29
2023-05-22T08:25:02.169Z,1.25
2023-05-22T08:26:02.232Z,1.23
2023-05-22T08:27:02.581Z,1.22
2023-05-22T08:28:02.318Z,1.24
2023-05-22T08:29:02.330Z,1.31
2023-05-22T08:30:02.666Z,1.37
2023-05-22T08:31:03.035Z,1.34
2023-05-22T08:32:03.106Z,1.35
2023-05-22T08:33:02.631Z,1.43
2023-05-22T08:34:03.016Z,1.43
2023-05-22T08:35:02.131Z,1.41
2023-05-22T08:36:02.180Z,1.43
2023-05-22T08:37:02.495Z,1.48
2023-05-22T08:38:02.610Z,1.56
2023-05-22T08:39:02.225Z,1.62
2023-05-22T08:40:02.652Z,1.69
2023-05-22T08:41:02.146Z,1.74
2023-05-22T08:42:02.171Z,1.77
2023-05-22T08:43:02.201Z,1.80
2023-05-22T08:44:02.148Z,1.69
2023-05-22T08:45:03.202Z,1.60
2023-05-22T08:46:02.815Z,1.65
2023-05-22T08:47:02.955Z,1.71
2023-05-22T08:48:03.161Z,1.74
2023-05-22T08:49:02.889Z,1.79
2023-05-22T08:50:02.677Z,1.68
2023-05-22T08:51:02.570Z,1.77
2023-05-22T08:52:02.526Z,1.75
2023-05-22T08:53:02.627Z,1.76
2023-05-22T08:54:02.120Z,1.77
2023-05-22T08:55:02.271Z,1.71
2023-05-22T08:56:02.698Z,1.61
2023-05-22T08:57:02.304Z,1.58
2023-05-22T08:58:02.193Z,1.61
2023-05-22T08:59:02.702Z,1.68
2023-05-22T09:00:03.085Z,1.82
2023-05-22T09:01:02.999Z,1.94
2023-05-22T09:02:04.388Z,2.17
2023-05-22T09:03:02.533Z,2.41
2023-05-22T09:04:02.664Z,2.28
2023-05-22T09:05:02.575Z,3.14
2023-05-22T09:06:02.086Z,2.44
2023-05-22T09:07:02.418Z,3.06
2023-05-22T09:08:16.175Z,2.65
2023-05-22T09:09:02.460Z,2.39
2023-05-22T09:10:02.165Z,2.48
2023-05-22T09:11:02.325Z,3.33
2023-05-22T09:12:02.701Z,2.57
2023-05-22T09:13:02.478Z,3.58
2023-05-22T09:14:02.436Z,3.12
2023-05-22T09:15:02.622Z,2.70
2023-05-22T09:16:02.901Z,3.39
2023-05-22T09:17:02.438Z,2.20
2023-05-22T09:18:02.965Z,2.02
2023-05-22T09:19:02.483Z,2.07
2023-05-22T09:20:02.928Z,2.34
2023-05-22T09:21:03.736Z,3.09
2023-05-22T09:22:02.996Z,3.01
2023-05-22T09:23:03.243Z,2.71
2023-05-22T09:24:03.532Z,2.62
2023-05-22T09:25:03.361Z,2.28
2023-05-22T09:26:02.583Z,2.59
2023-05-22T09:27:02.977Z,1.98
2023-05-22T09:28:02.502Z,2.22
2023-05-22T09:29:02.829Z,2.11
2023-05-22T09:30:02.207Z,3.11
2023-05-22T09:31:04.179Z,2.97
2023-05-22T09:32:02.744Z,3.44
2023-05-22T09:33:02.537Z,3.67
2023-05-22T09:34:02.187Z,3.60
2023-05-22T09:35:02.601Z,2.33
2023-05-22T09:36:03.000Z,4.11
2023-05-22T09:37:02.641Z,3.22
2023-05-22T09:38:02.735Z,2.28
2023-05-22T09:39:03.009Z,2.18
2023-05-22T09:40:02.866Z,2.21
2023-05-22T09:41:02.933Z,2.38
2023-05-22T09:42:03.040Z,2.46
2023-05-22T09:43:03.047Z,2.82
2023-05-22T09:44:02.935Z,2.64
2023-05-22T09:45:02.744Z,2.31
2023-05-22T09:46:02.759Z,2.29
2023-05-22T09:47:02.518Z,2.27
2023-05-22T09:48:02.711Z,2.63
2023-05-22T09:49:02.323Z,2.59
2023-05-22T09:50:03.295Z,3.27
2023-05-22T09:51:03.011Z,2.13
2023-05-22T09:52:02.971Z,1.88
2023-05-22T09:53:03.433Z,1.59
2023-05-22T09:54:03.557Z,1.54
2023-05-22T09:55:02.733Z,1.70
2023-05-22T09:56:03.174Z,1.93
2023-05-22T09:57:02.710Z,1.91
2023-05-22T09:58:03.218Z,2.03
2023-05-22T09:59:02.583Z,2.19
2023-05-22T10:00:03.147Z,2.07
2023-05-22T10:01:03.206Z,2.89
2023-05-22T10:02:03.250Z,3.09
2023-05-22T10:03:03.314Z,2.63
2023-05-22T10:04:03.156Z,3.86
2023-05-22T10:05:02.375Z,4.22
2023-05-22T10:06:02.525Z,3.94
2023-05-22T10:07:02.315Z,2.67
2023-05-22T10:08:02.443Z,2.65
2023-05-22T10:09:02.343Z,2.01
2023-05-22T10:10:03.446Z,2.26
2023-05-22T10:11:03.450Z,2.49
2023-05-22T10:12:02.874Z,4.18
2023-05-22T10:13:03.213Z,2.88
2023-05-22T10:14:03.323Z,4.01
2023-05-22T10:15:02.765Z,4.14
2023-05-22T10:16:02.891Z,4.19
2023-05-22T10:17:03.032Z,2.85
2023-05-22T10:18:03.160Z,3.40
2023-05-22T10:19:02.663Z,3.31
2023-05-22T10:20:02.501Z,4.17
2023-05-22T10:21:02.760Z,3.42
2023-05-22T10:22:02.617Z,3.16
2023-05-22T10:23:02.305Z,2.16
2023-05-22T10:24:02.706Z,2.38
2023-05-22T10:25:03.234Z,3.65
2023-05-22T10:26:03.111Z,4.10
2023-05-22T10:27:02.805Z,4.11
2023-05-22T10:28:03.251Z,2.57
2023-05-22T10:29:03.390Z,1.95
2023-05-22T10:30:02.953Z,2.40
2023-05-22T10:31:02.305Z,2.58
2023-05-22T10:32:02.424Z,3.99
2023-05-22T10:33:02.772Z,4.12
2023-05-22T10:34:02.935Z,2.56
2023-05-22T10:35:03.214Z,2.56
2023-05-22T10:36:03.111Z,2.71
2023-05-22T10:37:16.532Z,3.50
2023-05-22T10:38:02.935Z,2.99
2023-05-22T10:39:03.313Z,3.85
2023-05-22T10:40:02.920Z,4.32
2023-05-22T10:41:02.998Z,2.78
2023-05-22T10:42:02.826Z,3.17
2023-05-22T10:43:02.432Z,2.09
2023-05-22T10:44:02.986Z,2.33
2023-05-22T10:45:02.704Z,2.34
2023-05-22T10:46:02.912Z,3.77
2023-05-22T10:47:03.047Z,4.24
2023-05-22T10:48:02.985Z,4.33
2023-05-22T10:49:02.817Z,3.32
2023-05-22T10:50:02.782Z,4.53
2023-05-22T10:51:02.944Z,3.41
2023-05-22T10:52:02.594Z,4.62
2023-05-22T10:53:02.898Z,4.01
2023-05-22T10:54:02.773Z,4.39
2023-05-22T10:55:03.133Z,4.53
2023-05-22T10:56:03.323Z,4.38
2023-05-22T10:57:02.844Z,2.67
2023-05-22T10:58:04.959Z,2.51
2023-05-22T10:59:03.318Z,2.68
2023-05-22T11:00:03.064Z,2.36
2023-05-22T11:01:02.804Z,2.97
2023-05-22T11:02:03.043Z,2.37
2023-05-22T11:03:13.534Z,2.54
2023-05-22T11:04:03.174Z,2.34
2023-05-22T11:05:02.800Z,3.18
2023-05-22T11:06:02.803Z,3.87
2023-05-22T11:07:02.730Z,2.95
2023-05-22T11:08:02.351Z,2.22
2023-05-22T11:09:02.574Z,2.25
2023-05-22T11:10:02.924Z,2.59
2023-05-22T11:11:02.516Z,3.67
2023-05-22T11:12:02.660Z,2.63
2023-05-22T11:13:03.081Z,3.18
2023-05-22T11:14:02.557Z,4.45
2023-05-22T11:15:03.151Z,4.39
2023-05-22T11:16:02.741Z,4.52
2023-05-22T11:17:03.005Z,4.59
2023-05-22T11:18:02.955Z,2.49
2023-05-22T11:19:21.184Z,2.80
2023-05-22T11:20:03.160Z,4.54
2023-05-22T11:21:02.795Z,4.71
2023-05-22T11:22:02.987Z,4.57
2023-05-22T11:23:03.286Z,3.37
2023-05-22T11:24:03.209Z,4.23
2023-05-22T11:25:03.423Z,4.15
2023-05-22T11:26:03.261Z,2.29
2023-05-22T11:27:03.291Z,4.24
2023-05-22T11:28:03.441Z,4.37
2023-05-22T11:29:03.228Z,4.62
2023-05-22T11:30:02.796Z,4.48
2023-05-22T11:31:02.479Z,4.08
2023-05-22T11:32:02.840Z,4.46
2023-05-22T11:33:02.790Z,4.30
2023-05-22T11:34:02.543Z,4.56
2023-05-22T11:35:03.381Z,4.51
2023-05-22T11:36:03.163Z,2.49
2023-05-22T11:37:02.932Z,2.15
2023-05-22T11:38:03.153Z,3.26
2023-05-22T11:39:03.223Z,4.43
2023-05-22T11:40:02.669Z,4.44
2023-05-22T11:41:02.222Z,4.27
2023-05-22T11:42:02.339Z,4.43
2023-05-22T11:43:02.382Z,2.72
2023-05-22T11:44:02.328Z,2.45
2023-05-22T11:45:02.980Z,4.24
2023-05-22T11:46:03.027Z,2.45
2023-05-22T11:47:02.936Z,3.49
2023-05-22T11:48:02.760Z,2.69
2023-05-22T11:49:02.968Z,2.48
2023-05-22T11:50:03.375Z,4.16
2023-05-22T11:51:02.691Z,2.41
2023-05-22T11:52:03.270Z,4.21
2023-05-22T11:53:02.753Z,4.09
2023-05-22T11:54:02.750Z,2.59
2023-05-22T11:55:03.448Z,4.01
2023-05-22T11:56:03.293Z,4.36
2023-05-22T11:57:03.487Z,3.42
2023-05-22T11:58:03.382Z,3.22
2023-05-22T11:59:03.070Z,4.14
2023-05-22T12:00:02.262Z,4.18
2023-05-22T12:01:02.417Z,4.10
2023-05-22T12:02:02.628Z,4.13
2023-05-22T12:03:02.658Z,4.05
2023-05-22T12:04:02.740Z,4.09
2023-05-22T12:05:02.714Z,4.15
2023-05-22T12:06:03.507Z,4.24
2023-05-22T12:07:03.083Z,4.08
2023-05-22T12:08:03.315Z,4.18
2023-05-22T12:09:03.416Z,4.17
2023-05-22T12:10:03.249Z,4.13
2023-05-22T12:11:02.490Z,4.17
2023-05-22T12:12:02.708Z,4.04
2023-05-22T12:13:02.499Z,4.05
2023-05-22T12:14:02.391Z,2.34
2023-05-22T12:15:02.549Z,4.23
2023-05-22T12:16:03.146Z,3.60
2023-05-22T12:17:02.918Z,4.13
2023-05-22T12:18:03.107Z,3.90
2023-05-22T12:19:02.892Z,2.12
2023-05-22T12:20:02.890Z,4.08
2023-05-22T12:21:03.666Z,4.00
2023-05-22T12:22:03.420Z,4.00
2023-05-22T12:23:03.357Z,3.95
2023-05-22T12:24:03.385Z,3.88
2023-05-22T12:25:03.541Z,3.93
2023-05-22T12:26:02.840Z,3.83
2023-05-22T12:27:02.745Z,3.71
2023-05-22T12:28:03.146Z,3.76
2023-05-22T12:29:03.230Z,3.76
2023-05-22T12:30:02.906Z,3.87
2023-05-22T12:31:03.781Z,3.88
2023-05-22T12:32:03.393Z,3.72
2023-05-22T12:33:03.821Z,3.84
2023-05-22T12:34:03.423Z,3.67
2023-05-22T12:35:03.700Z,3.70
2023-05-22T12:36:02.473Z,2.06
2023-05-22T12:37:02.510Z,3.68
2023-05-22T12:38:02.624Z,3.76
2023-05-22T12:39:02.668Z,3.65
2023-05-22T12:40:03.088Z,2.49
2023-05-22T12:41:02.718Z,3.04
2023-05-22T12:42:03.064Z,2.29
2023-05-22T12:43:03.134Z,3.39
2023-05-22T12:44:03.019Z,3.63
2023-05-22T12:45:02.676Z,3.60
2023-05-22T12:46:03.235Z,3.78
2023-05-22T12:47:03.709Z,3.66
2023-05-22T12:48:03.183Z,3.76
2023-05-22T12:49:03.464Z,3.86
2023-05-22T12:50:03.710Z,3.65
2023-05-22T12:51:03.780Z,3.60
2023-05-22T12:52:03.317Z,3.54
2023-05-22T12:53:03.610Z,3.56
2023-05-22T12:54:03.353Z,3.55
2023-05-22T12:55:03.499Z,3.40
2023-05-22T12:56:02.822Z,3.18
2023-05-22T12:57:02.923Z,1.93
2023-05-22T12:58:02.901Z,3.25
2023-05-22T12:59:03.239Z,3.63
2023-05-22T13:00:02.925Z,3.28
2023-05-22T13:01:02.777Z,3.47
2023-05-22T13:02:02.605Z,3.47
2023-05-22T13:03:02.783Z,3.31
2023-05-22T13:04:02.469Z,3.40
2023-05-22T13:05:02.820Z,3.28
2023-05-22T13:06:02.390Z,3.35
2023-05-22T13:07:01.888Z,3.20
2023-05-22T13:08:02.443Z,3.25
2023-05-22T13:09:01.934Z,3.24
2023-05-22T13:10:02.032Z,3.33
2023-05-22T13:11:02.625Z,3.41
2023-05-22T13:12:02.871Z,3.36
2023-05-22T13:13:02.769Z,3.35
2023-05-22T13:14:02.741Z,3.38
2023-05-22T13:15:02.608Z,3.35
2023-05-22T13:16:02.070Z,3.24
2023-05-22T13:17:02.042Z,3.32
2023-05-22T13:18:02.139Z,2.94